logo dgac
Lunes 27 de Septiembre del 2021
Buscar por aerodromo o helipuerto
Ingrese nombre de aeródromo, localidad o designador OACI:
TAF: TAF SCRG 261018Z 2612/2624 18004KT 5000 HZ NSC TX22/2619Z TN07/2612Z TEMPO 2612/2614 VRB02KT 3000 BR SCT003 BKN008 BECMG 2615/2617 22011KT CAVOK
TAF del 26/09/2021 a las 10:18 UTC
Para mayor información visite www.meteochile.cl
Período de validez: desde el 26 a las 12:00 UTC hasta el 26 a las 24:00 UTC
Viento: dirección 180 grados, velocidad 4 nudos
Visibilidad: 5000 metros
Bruma
Sin nubes bajo los 5000 pies o bajo del MSA (Mínimo de Seguridad del Aeródromo)
Temperatura máxima: 22ºC el 26 a las 19:00 UTC
Temperatura mínima: 7ºC el 26 a las 12:00 UTC
Se espera en forma temporal entre las 12:00 UTC del 26 y las 14:00 UTC del 26:
Viento: dirección variable, velocidad 2 nudos
Visibilidad: 3000 metros
Neblina
Nubes: Nubosidad parcial a 300 pies sobre el nivel del aeródromo
Nubes: Nublado a 800 pies sobre el nivel del aeródromo
Se espera un cambio entre las 15:00 UTC del 26 y las 17:00 UTC del 26, :
Viento: dirección 220 grados, velocidad 11 nudos
Visibilidad: 10 km o más,
    sin nubes bajo los 5.000 pies o bajo del MSA (Mínimo de Seguridad del Aeródromo),
    sin cumulonimbus, y sin fenómenos de tiempo significativo en el aeródromo o alrededores